sensor_id;sensor_type;location;lat;lon;timestamp;pressure;altitude;pressure_sealevel;temperature;humidity
20630;BME280;17386;43.846;25.950;2024-01-06T00:00:56;101073.69;;;6.99;100.00
20630;BME280;17386;43.846;25.950;2024-01-06T00:03:21;101073.72;;;6.98;100.00
20630;BME280;17386;43.846;25.950;2024-01-06T00:05:47;101069.41;;;6.92;100.00
20630;BME280;17386;43.846;25.950;2024-01-06T00:08:13;101057.13;;;6.90;100.00
20630;BME280;17386;43.846;25.950;2024-01-06T00:10:38;101059.81;;;6.87;100.00
20630;BME280;17386;43.846;25.950;2024-01-06T00:13:03;101053.66;;;6.86;100.00
20630;BME280;17386;43.846;25.950;2024-01-06T00:15:29;101048.41;;;6.84;100.00
20630;BME280;17386;43.846;25.950;2024-01-06T00:17:54;101024.50;;;6.92;100.00
20630;BME280;17386;43.846;25.950;2024-01-06T00:20:19;101019.88;;;7.06;100.00
20630;BME280;17386;43.846;25.950;2024-01-06T00:22:45;101026.06;;;7.07;100.00
20630;BME280;17386;43.846;25.950;2024-01-06T00:25:10;101029.66;;;7.01;100.00
20630;BME280;17386;43.846;25.950;2024-01-06T00:27:36;101034.94;;;7.00;100.00
20630;BME280;17386;43.846;25.950;2024-01-06T00:30:01;101034.97;;;6.98;100.00
20630;BME280;17386;43.846;25.950;2024-01-06T00:32:26;101039.31;;;7.02;100.00
20630;BME280;17386;43.846;25.950;2024-01-06T00:34:52;101038.44;;;7.02;100.00
20630;BME280;17386;43.846;25.950;2024-01-06T00:37:17;101046.28;;;7.08;100.00
20630;BME280;17386;43.846;25.950;2024-01-06T00:39:43;101046.09;;;7.19;100.00
20630;BME280;17386;43.846;25.950;2024-01-06T00:42:08;101058.25;;;7.27;100.00
20630;BME280;17386;43.846;25.950;2024-01-06T00:44:36;101074.13;;;7.27;100.00
20630;BME280;17386;43.846;25.950;2024-01-06T00:47:01;101079.47;;;7.24;100.00
20630;BME280;17386;43.846;25.950;2024-01-06T00:49:26;101080.19;;;7.32;100.00
20630;BME280;17386;43.846;25.950;2024-01-06T00:51:52;101077.56;;;7.32;100.00
20630;BME280;17386;43.846;25.950;2024-01-06T00:54:17;101081.06;;;7.33;100.00
20630;BME280;17386;43.846;25.950;2024-01-06T00:56:43;101082.72;;;7.42;100.00
20630;BME280;17386;43.846;25.950;2024-01-06T00:59:09;101079.06;;;7.47;100.00
20630;BME280;17386;43.846;25.950;2024-01-06T01:01:34;101072.00;;;7.49;100.00
20630;BME280;17386;43.846;25.950;2024-01-06T01:03:59;101081.56;;;7.56;100.00
20630;BME280;17386;43.846;25.950;2024-01-06T01:06:25;101090.19;;;7.66;100.00
20630;BME280;17386;43.846;25.950;2024-01-06T01:08:50;101082.16;;;7.72;100.00
20630;BME280;17386;43.846;25.950;2024-01-06T01:11:16;101083.97;;;7.70;100.00
20630;BME280;17386;43.846;25.950;2024-01-06T01:13:41;101083.84;;;7.76;100.00
20630;BME280;17386;43.846;25.950;2024-01-06T01:16:06;101081.09;;;7.81;100.00
20630;BME280;17386;43.846;25.950;2024-01-06T01:18:32;101081.84;;;7.87;100.00
20630;BME280;17386;43.846;25.950;2024-01-06T01:20:57;101081.78;;;7.92;100.00
20630;BME280;17386;43.846;25.950;2024-01-06T01:23:23;101073.72;;;7.98;100.00
20630;BME280;17386;43.846;25.950;2024-01-06T01:25:48;101060.66;;;7.90;100.00
20630;BME280;17386;43.846;25.950;2024-01-06T01:28:14;101051.84;;;7.90;100.00
20630;BME280;17386;43.846;25.950;2024-01-06T01:30:39;101066.59;;;8.02;100.00
20630;BME280;17386;43.846;25.950;2024-01-06T01:33:05;101052.44;;;8.04;100.00
20630;BME280;17386;43.846;25.950;2024-01-06T01:35:30;101059.31;;;8.13;100.00
20630;BME280;17386;43.846;25.950;2024-01-06T01:37:55;101039.84;;;8.15;100.00
20630;BME280;17386;43.846;25.950;2024-01-06T01:40:21;101035.34;;;8.20;100.00
20630;BME280;17386;43.846;25.950;2024-01-06T01:42:46;101031.72;;;8.25;100.00
20630;BME280;17386;43.846;25.950;2024-01-06T01:45:11;101029.72;;;8.36;100.00
20630;BME280;17386;43.846;25.950;2024-01-06T01:47:37;101018.19;;;8.40;100.00
20630;BME280;17386;43.846;25.950;2024-01-06T01:50:03;101026.00;;;8.46;100.00
20630;BME280;17386;43.846;25.950;2024-01-06T01:52:29;101027.66;;;8.50;100.00
20630;BME280;17386;43.846;25.950;2024-01-06T01:54:55;101030.19;;;8.55;100.00
20630;BME280;17386;43.846;25.950;2024-01-06T01:57:23;101027.41;;;8.61;100.00
20630;BME280;17386;43.846;25.950;2024-01-06T01:59:49;101030.88;;;8.63;100.00
20630;BME280;17386;43.846;25.950;2024-01-06T02:02:15;101028.09;;;8.69;100.00
20630;BME280;17386;43.846;25.950;2024-01-06T02:04:41;101018.31;;;8.72;100.00
20630;BME280;17386;43.846;25.950;2024-01-06T02:07:06;101030.50;;;8.80;100.00
20630;BME280;17386;43.846;25.950;2024-01-06T02:09:32;101022.59;;;8.78;100.00
20630;BME280;17386;43.846;25.950;2024-01-06T02:11:57;101003.31;;;8.71;100.00
20630;BME280;17386;43.846;25.950;2024-01-06T02:14:23;101005.19;;;8.68;100.00
20630;BME280;17386;43.846;25.950;2024-01-06T02:16:49;101023.75;;;8.66;100.00
20630;BME280;17386;43.846;25.950;2024-01-06T02:19:15;101012.16;;;8.70;100.00
20630;BME280;17386;43.846;25.950;2024-01-06T02:21:42;101009.38;;;8.76;100.00
20630;BME280;17386;43.846;25.950;2024-01-06T02:24:08;100990.94;;;8.73;100.00
20630;BME280;17386;43.846;25.950;2024-01-06T02:26:34;100998.88;;;8.73;100.00
20630;BME280;17386;43.846;25.950;2024-01-06T02:28:59;101006.06;;;8.68;99.68
20630;BME280;17386;43.846;25.950;2024-01-06T02:31:25;101007.00;;;8.66;99.53
20630;BME280;17386;43.846;25.950;2024-01-06T02:33:50;100992.03;;;8.63;99.80
20630;BME280;17386;43.846;25.950;2024-01-06T02:36:15;100997.09;;;8.74;100.00
20630;BME280;17386;43.846;25.950;2024-01-06T02:38:41;100987.13;;;8.84;99.51
20630;BME280;17386;43.846;25.950;2024-01-06T02:41:06;100988.91;;;8.83;99.06
20630;BME280;17386;43.846;25.950;2024-01-06T02:43:32;100980.13;;;8.81;98.54
20630;BME280;17386;43.846;25.950;2024-01-06T02:45:57;100975.09;;;8.70;98.94
20630;BME280;17386;43.846;25.950;2024-01-06T02:48:22;100966.19;;;8.74;98.66
20630;BME280;17386;43.846;25.950;2024-01-06T02:50:48;100964.44;;;8.73;98.37
20630;BME280;17386;43.846;25.950;2024-01-06T02:53:13;100966.28;;;8.70;98.52
20630;BME280;17386;43.846;25.950;2024-01-06T02:55:39;100974.16;;;8.73;98.38
20630;BME280;17386;43.846;25.950;2024-01-06T02:58:05;100981.97;;;8.79;98.20
20630;BME280;17386;43.846;25.950;2024-01-06T03:00:30;100982.91;;;8.76;97.61
20630;BME280;17386;43.846;25.950;2024-01-06T03:02:55;100989.06;;;8.77;97.50
20630;BME280;17386;43.846;25.950;2024-01-06T03:05:21;100976.78;;;8.74;97.38
20630;BME280;17386;43.846;25.950;2024-01-06T03:07:46;100969.44;;;8.84;97.38
20630;BME280;17386;43.846;25.950;2024-01-06T03:10:12;100971.13;;;8.88;96.83
20630;BME280;17386;43.846;25.950;2024-01-06T03:12:37;100969.31;;;8.90;96.64
20630;BME280;17386;43.846;25.950;2024-01-06T03:15:03;100962.22;;;8.92;95.97
20630;BME280;17386;43.846;25.950;2024-01-06T03:17:28;100961.19;;;8.96;96.34
20630;BME280;17386;43.846;25.950;2024-01-06T03:19:54;100945.50;;;8.89;95.80
20630;BME280;17386;43.846;25.950;2024-01-06T03:22:20;100963.78;;;8.99;95.58
20630;BME280;17386;43.846;25.950;2024-01-06T03:24:45;100964.66;;;9.00;95.41
20630;BME280;17386;43.846;25.950;2024-01-06T03:27:11;100972.56;;;9.01;95.36
20630;BME280;17386;43.846;25.950;2024-01-06T03:29:37;100969.91;;;9.01;95.43
20630;BME280;17386;43.846;25.950;2024-01-06T03:32:03;100968.91;;;9.05;95.39
20630;BME280;17386;43.846;25.950;2024-01-06T03:34:29;100961.72;;;9.11;95.49
20630;BME280;17386;43.846;25.950;2024-01-06T03:36:54;100956.34;;;9.14;95.58
20630;BME280;17386;43.846;25.950;2024-01-06T03:39:19;100959.88;;;9.14;95.57
20630;BME280;17386;43.846;25.950;2024-01-06T03:41:45;100960.78;;;9.13;95.68
20630;BME280;17386;43.846;25.950;2024-01-06T03:44:10;100946.81;;;9.07;95.70
20630;BME280;17386;43.846;25.950;2024-01-06T03:46:36;100965.28;;;9.10;95.58
20630;BME280;17386;43.846;25.950;2024-01-06T03:49:01;100960.09;;;9.05;95.72
20630;BME280;17386;43.846;25.950;2024-01-06T03:51:27;100958.72;;;8.90;95.68
20630;BME280;17386;43.846;25.950;2024-01-06T03:53:52;100958.78;;;8.87;96.19
20630;BME280;17386;43.846;25.950;2024-01-06T03:56:17;100964.91;;;8.89;96.51
20630;BME280;17386;43.846;25.950;2024-01-06T03:58:43;100961.56;;;8.83;96.79
20630;BME280;17386;43.846;25.950;2024-01-06T04:01:09;100965.06;;;8.83;97.48
20630;BME280;17386;43.846;25.950;2024-01-06T04:03:35;100967.81;;;8.80;97.77
20630;BME280;17386;43.846;25.950;2024-01-06T04:06:01;100953.66;;;8.81;97.88
20630;BME280;17386;43.846;25.950;2024-01-06T04:08:26;100957.28;;;8.77;97.67
20630;BME280;17386;43.846;25.950;2024-01-06T04:10:52;100962.72;;;8.71;98.01
20630;BME280;17386;43.846;25.950;2024-01-06T04:13:17;100955.63;;;8.73;97.77
20630;BME280;17386;43.846;25.950;2024-01-06T04:15:43;100963.66;;;8.68;97.41
20630;BME280;17386;43.846;25.950;2024-01-06T04:18:08;100975.09;;;8.70;97.17
20630;BME280;17386;43.846;25.950;2024-01-06T04:20:34;100973.44;;;8.66;97.08
20630;BME280;17386;43.846;25.950;2024-01-06T04:23:00;100959.44;;;8.61;97.62
20630;BME280;17386;43.846;25.950;2024-01-06T04:25:25;100969.25;;;8.56;98.10
20630;BME280;17386;43.846;25.950;2024-01-06T04:27:51;100930.19;;;8.27;98.18
20630;BME280;17386;43.846;25.950;2024-01-06T04:30:17;100959.66;;;8.50;98.56
20630;BME280;17386;43.846;25.950;2024-01-06T04:32:43;100968.53;;;8.51;98.31
20630;BME280;17386;43.846;25.950;2024-01-06T04:35:09;100965.06;;;8.47;98.23
20630;BME280;17386;43.846;25.950;2024-01-06T04:37:35;100971.25;;;8.46;98.21
20630;BME280;17386;43.846;25.950;2024-01-06T04:40:00;100971.25;;;8.46;98.52
20630;BME280;17386;43.846;25.950;2024-01-06T04:42:26;100981.00;;;8.46;98.31
20630;BME280;17386;43.846;25.950;2024-01-06T04:44:51;100982.69;;;8.48;98.20
20630;BME280;17386;43.846;25.950;2024-01-06T04:47:17;100979.16;;;8.48;98.04
20630;BME280;17386;43.846;25.950;2024-01-06T04:49:43;100967.81;;;8.43;98.23
20630;BME280;17386;43.846;25.950;2024-01-06T04:52:09;100974.91;;;8.41;98.47
20630;BME280;17386;43.846;25.950;2024-01-06T04:54:34;100975.81;;;8.40;98.55
20630;BME280;17386;43.846;25.950;2024-01-06T04:57:00;100977.47;;;8.45;98.57
20630;BME280;17386;43.846;25.950;2024-01-06T04:59:25;100959.84;;;8.44;98.71
20630;BME280;17386;43.846;25.950;2024-01-06T05:01:51;100965.06;;;8.47;98.79
20630;BME280;17386;43.846;25.950;2024-01-06T05:04:18;100964.19;;;8.47;99.03
20630;BME280;17386;43.846;25.950;2024-01-06T05:06:43;100966.88;;;8.45;99.26
20630;BME280;17386;43.846;25.950;2024-01-06T05:09:09;100953.56;;;8.48;99.17
20630;BME280;17386;43.846;25.950;2024-01-06T05:11:34;100956.16;;;8.52;99.23
20630;BME280;17386;43.846;25.950;2024-01-06T05:14:00;100955.41;;;8.45;99.46
20630;BME280;17386;43.846;25.950;2024-01-06T05:16:25;100959.84;;;8.44;99.67
20630;BME280;17386;43.846;25.950;2024-01-06T05:18:51;100966.03;;;8.43;99.95
20630;BME280;17386;43.846;25.950;2024-01-06T05:21:16;100967.88;;;8.40;100.00
20630;BME280;17386;43.846;25.950;2024-01-06T05:23:42;100973.19;;;8.40;100.00
20630;BME280;17386;43.846;25.950;2024-01-06T05:26:08;100981.16;;;8.38;100.00
20630;BME280;17386;43.846;25.950;2024-01-06T05:28:33;100975.91;;;8.35;100.00
20630;BME280;17386;43.846;25.950;2024-01-06T05:30:58;100978.63;;;8.32;100.00
20630;BME280;17386;43.846;25.950;2024-01-06T05:33:24;100975.38;;;8.19;100.00
20630;BME280;17386;43.846;25.950;2024-01-06T05:35:49;100986.88;;;8.18;100.00
20630;BME280;17386;43.846;25.950;2024-01-06T05:38:15;100986.81;;;8.20;100.00
20630;BME280;17386;43.846;25.950;2024-01-06T05:40:42;100977.09;;;8.20;100.00
20630;BME280;17386;43.846;25.950;2024-01-06T05:43:07;100977.16;;;8.19;100.00
20630;BME280;17386;43.846;25.950;2024-01-06T05:45:33;100969.34;;;8.13;100.00
20630;BME280;17386;43.846;25.950;2024-01-06T05:47:58;100972.00;;;8.13;100.00
20630;BME280;17386;43.846;25.950;2024-01-06T05:50:24;100966.78;;;8.08;100.00
20630;BME280;17386;43.846;25.950;2024-01-06T05:52:49;100969.56;;;8.04;100.00
20630;BME280;17386;43.846;25.950;2024-01-06T05:55:15;100973.22;;;7.97;100.00
20630;BME280;17386;43.846;25.950;2024-01-06T05:57:41;100978.66;;;7.89;100.00
20630;BME280;17386;43.846;25.950;2024-01-06T06:00:10;100964.63;;;7.85;100.00
20630;BME280;17386;43.846;25.950;2024-01-06T06:02:36;100965.44;;;7.89;100.00
20630;BME280;17386;43.846;25.950;2024-01-06T06:05:02;100961.03;;;7.89;100.00
20630;BME280;17386;43.846;25.950;2024-01-06T06:07:27;100955.75;;;7.89;100.00
20630;BME280;17386;43.846;25.950;2024-01-06T06:09:52;100949.59;;;7.87;100.00
20630;BME280;17386;43.846;25.950;2024-01-06T06:12:19;100952.19;;;7.89;100.00
20630;BME280;17386;43.846;25.950;2024-01-06T06:14:44;100946.94;;;7.87;100.00
20630;BME280;17386;43.846;25.950;2024-01-06T06:17:09;100932.91;;;7.85;100.00
20630;BME280;17386;43.846;25.950;2024-01-06T06:19:35;100933.84;;;7.83;100.00
20630;BME280;17386;43.846;25.950;2024-01-06T06:22:00;100937.53;;;7.76;100.00
20630;BME280;17386;43.846;25.950;2024-01-06T06:24:26;100939.22;;;7.78;100.00
20630;BME280;17386;43.846;25.950;2024-01-06T06:26:51;100935.63;;;7.82;100.00
20630;BME280;17386;43.846;25.950;2024-01-06T06:29:17;100925.84;;;7.86;100.00
20630;BME280;17386;43.846;25.950;2024-01-06T06:31:42;100927.47;;;7.91;100.00
20630;BME280;17386;43.846;25.950;2024-01-06T06:34:12;100916.91;;;7.91;100.00
20630;BME280;17386;43.846;25.950;2024-01-06T06:36:37;100910.84;;;7.86;100.00
20630;BME280;17386;43.846;25.950;2024-01-06T06:39:03;100915.25;;;7.86;100.00
20630;BME280;17386;43.846;25.950;2024-01-06T06:41:30;100921.31;;;7.91;100.00
20630;BME280;17386;43.846;25.950;2024-01-06T06:43:56;100926.34;;;8.02;100.00
20630;BME280;17386;43.846;25.950;2024-01-06T06:46:25;100928.00;;;8.07;100.00
20630;BME280;17386;43.846;25.950;2024-01-06T06:48:50;100923.78;;;7.99;100.00
20630;BME280;17386;43.846;25.950;2024-01-06T06:51:16;100925.44;;;8.04;100.00
20630;BME280;17386;43.846;25.950;2024-01-06T06:53:41;100930.44;;;8.16;100.00
20630;BME280;17386;43.846;25.950;2024-01-06T06:56:07;100937.22;;;8.28;100.00
20630;BME280;17386;43.846;25.950;2024-01-06T06:58:32;100956.31;;;8.04;100.00
20630;BME280;17386;43.846;25.950;2024-01-06T07:00:58;100952.00;;;8.00;100.00
20630;BME280;17386;43.846;25.950;2024-01-06T07:03:24;100959.78;;;8.06;100.00
20630;BME280;17386;43.846;25.950;2024-01-06T07:05:49;100965.28;;;7.97;100.00
20630;BME280;17386;43.846;25.950;2024-01-06T07:08:15;100967.38;;;7.81;100.00
20630;BME280;17386;43.846;25.950;2024-01-06T07:10:41;100956.88;;;7.78;100.00
20630;BME280;17386;43.846;25.950;2024-01-06T07:13:06;100955.88;;;7.82;100.00
20630;BME280;17386;43.846;25.950;2024-01-06T07:15:31;100951.25;;;7.93;100.00
20630;BME280;17386;43.846;25.950;2024-01-06T07:17:57;100953.63;;;8.05;100.00
20630;BME280;17386;43.846;25.950;2024-01-06T07:20:22;100942.06;;;8.09;100.00
20630;BME280;17386;43.846;25.950;2024-01-06T07:22:48;100951.59;;;8.18;100.00
20630;BME280;17386;43.846;25.950;2024-01-06T07:25:13;100945.25;;;8.25;100.00
20630;BME280;17386;43.846;25.950;2024-01-06T07:27:39;100939.81;;;8.31;100.00
20630;BME280;17386;43.846;25.950;2024-01-06T07:30:05;100925.63;;;8.35;100.00
20630;BME280;17386;43.846;25.950;2024-01-06T07:32:33;100922.84;;;8.41;100.00
20630;BME280;17386;43.846;25.950;2024-01-06T07:34:58;100918.53;;;8.37;100.00
20630;BME280;17386;43.846;25.950;2024-01-06T07:37:23;100925.53;;;8.40;100.00
20630;BME280;17386;43.846;25.950;2024-01-06T07:39:49;100934.53;;;8.31;100.00
20630;BME280;17386;43.846;25.950;2024-01-06T07:42:14;100930.72;;;8.43;100.00
20630;BME280;17386;43.846;25.950;2024-01-06T07:44:40;100935.97;;;8.46;100.00
20630;BME280;17386;43.846;25.950;2024-01-06T07:47:05;100926.47;;;8.37;100.00
20630;BME280;17386;43.846;25.950;2024-01-06T07:49:31;100937.72;;;8.47;100.00
20630;BME280;17386;43.846;25.950;2024-01-06T07:51:57;100933.09;;;8.55;100.00
20630;BME280;17386;43.846;25.950;2024-01-06T07:54:22;100931.97;;;8.65;100.00
20630;BME280;17386;43.846;25.950;2024-01-06T07:56:47;100940.59;;;8.73;100.00
20630;BME280;17386;43.846;25.950;2024-01-06T07:59:13;100934.28;;;8.79;100.00
20630;BME280;17386;43.846;25.950;2024-01-06T08:01:39;100928.63;;;8.93;100.00
20630;BME280;17386;43.846;25.950;2024-01-06T08:04:04;100925.63;;;9.07;100.00
20630;BME280;17386;43.846;25.950;2024-01-06T08:06:30;100919.38;;;9.09;100.00
20630;BME280;17386;43.846;25.950;2024-01-06T08:08:55;100925.28;;;9.19;100.00
20630;BME280;17386;43.846;25.950;2024-01-06T08:11:21;100939.97;;;9.30;100.00
20630;BME280;17386;43.846;25.950;2024-01-06T08:13:46;100940.19;;;9.23;100.00
20630;BME280;17386;43.846;25.950;2024-01-06T08:16:12;100938.38;;;9.25;100.00
20630;BME280;17386;43.846;25.950;2024-01-06T08:18:37;100930.63;;;9.17;100.00
20630;BME280;17386;43.846;25.950;2024-01-06T08:21:03;100927.81;;;9.23;100.00
20630;BME280;17386;43.846;25.950;2024-01-06T08:23:28;100933.59;;;9.38;100.00
20630;BME280;17386;43.846;25.950;2024-01-06T08:25:54;100936.56;;;9.27;98.51
20630;BME280;17386;43.846;25.950;2024-01-06T08:28:19;100935.34;;;9.39;98.87
20630;BME280;17386;43.846;25.950;2024-01-06T08:30:46;100931.31;;;9.56;98.80
20630;BME280;17386;43.846;25.950;2024-01-06T08:33:11;100922.97;;;9.70;98.48
20630;BME280;17386;43.846;25.950;2024-01-06T08:35:37;100919.03;;;9.83;98.05
20630;BME280;17386;43.846;25.950;2024-01-06T08:38:08;100906.16;;;9.99;97.11
20630;BME280;17386;43.846;25.950;2024-01-06T08:40:34;100908.44;;;10.11;96.67
20630;BME280;17386;43.846;25.950;2024-01-06T08:43:00;100909.03;;;10.23;95.87
20630;BME280;17386;43.846;25.950;2024-01-06T08:45:26;100909.66;;;10.29;95.09
20630;BME280;17386;43.846;25.950;2024-01-06T08:47:51;100909.28;;;10.41;94.95
20630;BME280;17386;43.846;25.950;2024-01-06T08:50:17;100900.06;;;10.53;94.51
20630;BME280;17386;43.846;25.950;2024-01-06T08:52:42;100890.28;;;10.54;94.27
20630;BME280;17386;43.846;25.950;2024-01-06T08:55:08;100892.75;;;10.60;94.25
20630;BME280;17386;43.846;25.950;2024-01-06T08:57:33;100887.09;;;10.71;93.92
20630;BME280;17386;43.846;25.950;2024-01-06T08:59:58;100888.66;;;10.76;93.29
20630;BME280;17386;43.846;25.950;2024-01-06T09:02:24;100885.03;;;10.52;93.68
20630;BME280;17386;43.846;25.950;2024-01-06T09:04:49;100880.38;;;10.32;94.98
20630;BME280;17386;43.846;25.950;2024-01-06T09:07:15;100876.75;;;10.35;95.23
20630;BME280;17386;43.846;25.950;2024-01-06T09:09:42;100873.75;;;10.46;94.98
20630;BME280;17386;43.846;25.950;2024-01-06T09:12:11;100872.56;;;10.54;94.53
20630;BME280;17386;43.846;25.950;2024-01-06T09:14:36;100877.47;;;10.66;94.40
20630;BME280;17386;43.846;25.950;2024-01-06T09:17:02;100873.75;;;10.72;94.38
20630;BME280;17386;43.846;25.950;2024-01-06T09:19:27;100869.09;;;10.79;94.22
20630;BME280;17386;43.846;25.950;2024-01-06T09:21:54;100858.41;;;10.80;94.07
20630;BME280;17386;43.846;25.950;2024-01-06T09:24:20;100851.16;;;10.85;94.15
20630;BME280;17386;43.846;25.950;2024-01-06T09:26:45;100834.38;;;10.83;93.65
20630;BME280;17386;43.846;25.950;2024-01-06T09:29:11;100844.72;;;10.91;93.61
20630;BME280;17386;43.846;25.950;2024-01-06T09:31:37;100837.59;;;10.93;93.40
20630;BME280;17386;43.846;25.950;2024-01-06T09:34:02;100834.28;;;10.86;93.07
20630;BME280;17386;43.846;25.950;2024-01-06T09:36:28;100828.31;;;10.80;93.26
20630;BME280;17386;43.846;25.950;2024-01-06T09:38:53;100807.38;;;10.71;93.25
20630;BME280;17386;43.846;25.950;2024-01-06T09:41:18;100820.22;;;10.83;93.33
20630;BME280;17386;43.846;25.950;2024-01-06T09:43:45;100818.25;;;10.88;93.16
20630;BME280;17386;43.846;25.950;2024-01-06T09:46:16;100814.09;;;10.81;92.63
20630;BME280;17386;43.846;25.950;2024-01-06T09:48:45;100805.81;;;10.65;93.08
20630;BME280;17386;43.846;25.950;2024-01-06T09:51:11;100809.56;;;10.83;92.73
20630;BME280;17386;43.846;25.950;2024-01-06T09:53:48;100803.97;;;10.92;92.40
20630;BME280;17386;43.846;25.950;2024-01-06T09:56:17;100786.03;;;10.97;92.48
20630;BME280;17386;43.846;25.950;2024-01-06T09:58:43;100786.66;;;11.04;92.30
20630;BME280;17386;43.846;25.950;2024-01-06T10:01:10;100786.13;;;11.19;92.49
20630;BME280;17386;43.846;25.950;2024-01-06T10:03:37;100786.19;;;11.41;92.04
20630;BME280;17386;43.846;25.950;2024-01-06T10:06:03;100777.75;;;11.51;90.73
20630;BME280;17386;43.846;25.950;2024-01-06T10:08:30;100783.78;;;11.57;90.09
20630;BME280;17386;43.846;25.950;2024-01-06T10:10:58;100760.69;;;11.57;89.64
20630;BME280;17386;43.846;25.950;2024-01-06T10:13:25;100768.91;;;11.74;89.51
20630;BME280;17386;43.846;25.950;2024-01-06T10:15:50;100777.69;;;11.76;88.52
20630;BME280;17386;43.846;25.950;2024-01-06T10:18:16;100763.28;;;11.82;87.55
20630;BME280;17386;43.846;25.950;2024-01-06T10:20:43;100765.94;;;11.82;85.68
20630;BME280;17386;43.846;25.950;2024-01-06T10:23:09;100761.25;;;11.89;85.75
20630;BME280;17386;43.846;25.950;2024-01-06T10:25:35;100761.19;;;11.90;85.82
20630;BME280;17386;43.846;25.950;2024-01-06T10:28:01;100762.91;;;11.91;85.97
20630;BME280;17386;43.846;25.950;2024-01-06T10:30:29;100755.16;;;12.07;85.80
20630;BME280;17386;43.846;25.950;2024-01-06T10:32:54;100747.25;;;12.26;85.49
20630;BME280;17386;43.846;25.950;2024-01-06T10:35:20;100733.41;;;12.38;84.89
20630;BME280;17386;43.846;25.950;2024-01-06T10:37:45;100727.41;;;12.53;84.59
20630;BME280;17386;43.846;25.950;2024-01-06T10:40:16;100724.53;;;12.78;83.82
20630;BME280;17386;43.846;25.950;2024-01-06T10:42:42;100711.44;;;12.93;82.67
20630;BME280;17386;43.846;25.950;2024-01-06T10:45:09;100715.59;;;12.79;83.08
20630;BME280;17386;43.846;25.950;2024-01-06T10:47:40;100709.09;;;12.66;84.47
20630;BME280;17386;43.846;25.950;2024-01-06T10:50:06;100704.16;;;13.15;84.65
20630;BME280;17386;43.846;25.950;2024-01-06T10:52:33;100694.88;;;13.79;82.24
20630;BME280;17386;43.846;25.950;2024-01-06T10:55:01;100703.97;;;14.11;79.32
20630;BME280;17386;43.846;25.950;2024-01-06T10:57:27;100711.06;;;14.46;77.88
20630;BME280;17386;43.846;25.950;2024-01-06T10:59:54;100696.53;;;14.85;75.17
20630;BME280;17386;43.846;25.950;2024-01-06T11:02:23;100695.56;;;14.86;74.59
20630;BME280;17386;43.846;25.950;2024-01-06T11:04:50;100698.53;;;14.97;73.70
20630;BME280;17386;43.846;25.950;2024-01-06T11:07:18;100686.38;;;14.92;73.60
20630;BME280;17386;43.846;25.950;2024-01-06T11:09:50;100679.38;;;14.89;73.67
20630;BME280;17386;43.846;25.950;2024-01-06T11:12:18;100679.81;;;14.97;73.67
20630;BME280;17386;43.846;25.950;2024-01-06T11:14:44;100686.88;;;14.98;73.22
20630;BME280;17386;43.846;25.950;2024-01-06T11:17:11;100686.72;;;14.68;73.41
20630;BME280;17386;43.846;25.950;2024-01-06T11:22:23;100680.00;;;15.26;72.37
20630;BME280;17386;43.846;25.950;2024-01-06T11:24:49;100674.81;;;14.91;73.27
20630;BME280;17386;43.846;25.950;2024-01-06T11:27:22;100660.03;;;14.51;73.64
20630;BME280;17386;43.846;25.950;2024-01-06T11:29:50;100687.13;;;14.61;74.63
20630;BME280;17386;43.846;25.950;2024-01-06T11:32:35;100680.50;;;14.68;74.44
20630;BME280;17386;43.846;25.950;2024-01-06T11:35:13;100658.41;;;14.48;74.89
20630;BME280;17386;43.846;25.950;2024-01-06T11:40:26;100665.53;;;14.31;76.98
20630;BME280;17386;43.846;25.950;2024-01-06T11:43:09;100670.16;;;14.27;77.34
20630;BME280;17386;43.846;25.950;2024-01-06T11:45:37;100665.16;;;14.21;77.58
20630;BME280;17386;43.846;25.950;2024-01-06T11:48:05;100668.75;;;13.85;77.99
20630;BME280;17386;43.846;25.950;2024-01-06T11:50:34;100663.09;;;13.91;77.59
20630;BME280;17386;43.846;25.950;2024-01-06T11:53:00;100663.56;;;14.00;77.63
20630;BME280;17386;43.846;25.950;2024-01-06T11:55:26;100649.75;;;14.09;77.80
20630;BME280;17386;43.846;25.950;2024-01-06T11:57:57;100655.41;;;14.03;79.51
20630;BME280;17386;43.846;25.950;2024-01-06T12:00:23;100657.59;;;14.12;79.83
20630;BME280;17386;43.846;25.950;2024-01-06T12:02:49;100649.03;;;14.22;79.81
20630;BME280;17386;43.846;25.950;2024-01-06T12:05:16;100650.38;;;14.31;79.93
20630;BME280;17386;43.846;25.950;2024-01-06T12:07:52;100650.69;;;14.42;79.49
20630;BME280;17386;43.846;25.950;2024-01-06T12:10:23;100641.00;;;14.57;79.20
20630;BME280;17386;43.846;25.950;2024-01-06T12:13:02;100641.53;;;14.64;79.01
20630;BME280;17386;43.846;25.950;2024-01-06T12:15:30;100649.13;;;14.71;78.09
20630;BME280;17386;43.846;25.950;2024-01-06T12:17:56;100642.59;;;14.77;77.69
20630;BME280;17386;43.846;25.950;2024-01-06T12:20:22;100646.63;;;14.68;77.30
20630;BME280;17386;43.846;25.950;2024-01-06T12:22:50;100650.25;;;14.67;77.03
20630;BME280;17386;43.846;25.950;2024-01-06T12:25:16;100647.66;;;14.66;77.11
20630;BME280;17386;43.846;25.950;2024-01-06T12:27:42;100647.75;;;14.64;76.83
20630;BME280;17386;43.846;25.950;2024-01-06T12:30:13;100658.69;;;14.60;77.25
20630;BME280;17386;43.846;25.950;2024-01-06T12:32:41;100657.72;;;14.61;77.41
20630;BME280;17386;43.846;25.950;2024-01-06T12:35:07;100647.22;;;14.58;77.69
20630;BME280;17386;43.846;25.950;2024-01-06T12:37:35;100644.25;;;14.46;77.58
20630;BME280;17386;43.846;25.950;2024-01-06T12:40:01;100659.19;;;14.50;77.32
20630;BME280;17386;43.846;25.950;2024-01-06T12:42:26;100660.03;;;14.51;77.45